createdAt,value
2017-04-01T00:00:56.624Z,0
2017-04-01T00:01:42.034Z,0
2017-04-01T00:02:42.060Z,0
2017-04-01T00:03:42.077Z,0
2017-04-01T00:04:56.718Z,0
2017-04-01T00:05:42.122Z,0
2017-04-01T00:07:11.376Z,0
2017-04-01T00:07:42.165Z,0
2017-04-01T00:08:56.805Z,0
2017-04-01T00:09:56.838Z,0
2017-04-01T00:10:42.239Z,0
2017-04-01T00:11:41.963Z,0
2017-04-01T00:12:42.280Z,0
2017-04-01T00:13:42.040Z,0
2017-04-01T00:14:42.025Z,0
2017-04-01T00:15:42.050Z,0
2017-04-01T00:16:42.374Z,0
2017-04-01T00:17:42.400Z,0
2017-04-01T00:18:42.115Z,0
2017-04-01T00:19:42.137Z,0
2017-04-01T00:20:42.469Z,0
2017-04-01T00:21:42.593Z,0
2017-04-01T00:22:57.128Z,0
2017-04-01T00:23:42.537Z,0
2017-04-01T00:24:42.558Z,0
2017-04-01T00:26:42.605Z,0
2017-04-01T00:27:42.325Z,0
2017-04-01T00:28:42.651Z,0
2017-04-01T00:29:42.672Z,0
2017-04-01T00:30:42.692Z,0
2017-04-01T00:31:42.716Z,0
2017-04-01T00:32:42.432Z,0
2017-04-01T00:33:42.762Z,0
2017-04-01T00:34:57.402Z,0
2017-04-01T00:35:57.426Z,0
2017-04-01T00:36:57.447Z,0
2017-04-01T00:38:12.084Z,0
2017-04-01T00:38:42.875Z,0
2017-04-01T00:39:42.942Z,0
2017-04-01T00:40:42.925Z,0
2017-04-01T00:41:57.562Z,0
2017-04-01T00:42:42.971Z,0
2017-04-01T00:43:42.992Z,0
2017-04-01T00:45:42.731Z,0
2017-04-01T00:46:43.058Z,0
2017-04-01T00:47:43.082Z,0
2017-04-01T00:48:43.102Z,0
2017-04-01T00:49:57.744Z,0
2017-04-01T00:50:43.148Z,0
2017-04-01T00:51:43.170Z,0
2017-04-01T00:52:42.616Z,0
2017-04-01T00:53:42.917Z,0
2017-04-01T00:54:57.549Z,0
2017-04-01T00:55:43.265Z,0
2017-04-01T00:56:57.912Z,0
2017-04-01T00:57:57.920Z,0
2017-04-01T00:58:43.332Z,0
2017-04-01T00:59:43.356Z,0
2017-04-01T01:00:43.074Z,0
2017-04-01T01:01:43.093Z,0
2017-04-01T01:02:43.118Z,0
2017-04-01T01:03:57.757Z,0
2017-04-01T01:04:43.817Z,0
2017-04-01T01:05:43.186Z,0
2017-04-01T01:06:43.515Z,0
2017-04-01T01:07:43.833Z,0
2017-04-01T01:08:58.173Z,0
2017-04-01T01:09:58.234Z,0
2017-04-01T01:10:58.216Z,0
2017-04-01T01:11:43.626Z,0
2017-04-01T01:12:58.260Z,0
2017-04-01T01:13:43.669Z,0
2017-04-01T01:14:43.690Z,0
2017-04-01T01:15:43.756Z,0
2017-04-01T01:16:43.129Z,0
2017-04-01T01:17:43.756Z,0
2017-04-01T01:18:43.781Z,0
2017-04-01T01:19:43.807Z,0
2017-04-01T01:20:43.826Z,0
2017-04-01T01:21:43.781Z,0
2017-04-01T01:22:43.870Z,0
2017-04-01T01:23:43.895Z,0
2017-04-01T01:24:43.917Z,0
2017-04-01T01:25:43.940Z,0
2017-04-01T01:26:43.963Z,0
2017-04-01T01:27:43.778Z,0
2017-04-01T01:28:43.728Z,0
2017-04-01T01:29:44.025Z,0
2017-04-01T01:30:44.057Z,0
2017-04-01T01:31:43.773Z,0
2017-04-01T01:32:44.092Z,0
2017-04-01T01:33:44.117Z,0
2017-04-01T01:34:44.144Z,0
2017-04-01T01:35:44.156Z,0
2017-04-01T01:36:44.186Z,0
2017-04-01T01:37:44.201Z,0
2017-04-01T01:38:44.238Z,0
2017-04-01T01:39:44.247Z,0
2017-04-01T01:40:44.275Z,0
2017-04-01T01:41:58.910Z,0
2017-04-01T01:42:44.321Z,0
2017-04-01T01:43:43.736Z,0
2017-04-01T01:44:58.674Z,0
2017-04-01T01:45:44.393Z,0
2017-04-01T01:48:43.852Z,0
2017-04-01T01:49:43.867Z,0
2017-04-01T01:50:44.195Z,0
2017-04-01T01:51:44.518Z,0
2017-04-01T01:52:58.848Z,0
2017-04-01T01:53:44.558Z,0
2017-04-01T01:54:44.284Z,0
2017-04-01T01:55:59.223Z,0
2017-04-01T01:57:58.961Z,0
2017-04-01T01:58:44.684Z,0
2017-04-01T01:59:44.690Z,0
2017-04-01T02:00:59.036Z,0
2017-04-01T02:01:44.746Z,0
2017-04-01T02:02:44.459Z,0
2017-04-01T02:03:44.479Z,0
2017-04-01T02:04:44.803Z,0
2017-04-01T02:05:44.829Z,0
2017-04-01T02:06:59.466Z,0
2017-04-01T02:07:44.876Z,0
2017-04-01T02:08:59.508Z,0
2017-04-01T02:09:44.945Z,0
2017-04-01T02:10:44.634Z,0
2017-04-01T02:11:59.272Z,0
2017-04-01T02:12:59.603Z,0
2017-04-01T02:13:59.624Z,0
2017-04-01T02:14:45.026Z,0
2017-04-01T02:15:45.045Z,0
2017-04-01T02:16:59.681Z,0
2017-04-01T02:17:45.090Z,0
2017-04-01T02:19:44.530Z,0
2017-04-01T02:20:45.158Z,0
2017-04-01T02:21:45.178Z,0
2017-04-01T02:22:44.894Z,0
2017-04-01T02:23:44.924Z,0
2017-04-01T02:24:44.943Z,0
2017-04-01T02:25:45.265Z,0
2017-04-01T02:26:45.293Z,0
2017-04-01T02:27:59.922Z,0
2017-04-01T02:28:45.330Z,0
2017-04-01T02:29:45.355Z,0
2017-04-01T02:30:45.423Z,0
2017-04-01T02:31:45.402Z,0
2017-04-01T02:33:00.036Z,0
2017-04-01T02:33:45.442Z,0
2017-04-01T02:34:45.499Z,0
2017-04-01T02:35:45.487Z,0
2017-04-01T02:36:45.508Z,0
2017-04-01T02:37:45.526Z,0
2017-04-01T02:38:45.246Z,0
2017-04-01T02:40:00.188Z,0
2017-04-01T02:40:45.600Z,0
2017-04-01T02:41:45.618Z,0
2017-04-01T02:42:45.636Z,0
2017-04-01T02:44:00.272Z,0
2017-04-01T02:44:45.679Z,0
2017-04-01T02:45:45.704Z,0
2017-04-01T02:47:00.338Z,0
2017-04-01T02:48:00.366Z,0
2017-04-01T02:48:45.764Z,0
2017-04-01T02:49:45.486Z,0
2017-04-01T02:50:45.512Z,0
2017-04-01T02:51:45.534Z,0
2017-04-01T02:52:45.549Z,0
2017-04-01T02:53:45.870Z,0
2017-04-01T02:55:00.209Z,0
2017-04-01T02:56:00.535Z,0
2017-04-01T02:56:45.939Z,0
2017-04-01T02:57:45.961Z,0
2017-04-01T02:58:45.984Z,0
2017-04-01T02:59:46.038Z,0
2017-04-01T03:01:46.199Z,0
2017-04-01T03:02:46.069Z,0
2017-04-01T03:04:45.811Z,0
2017-04-01T03:05:46.136Z,0
2017-04-01T03:06:45.855Z,0
2017-04-01T03:07:46.180Z,0
2017-04-01T03:08:45.892Z,0
2017-04-01T03:10:00.838Z,0
2017-04-01T03:10:46.246Z,0
2017-04-01T03:12:46.290Z,0
2017-04-01T03:13:46.016Z,0
2017-04-01T03:14:46.334Z,0
2017-04-01T03:15:45.747Z,0
2017-04-01T03:16:46.378Z,0
2017-04-01T03:17:46.395Z,0
2017-04-01T03:18:46.116Z,0
2017-04-01T03:20:01.053Z,0
2017-04-01T03:21:00.768Z,0
2017-04-01T03:21:46.186Z,0
2017-04-01T03:23:01.126Z,0
2017-04-01T03:23:46.522Z,0
2017-04-01T03:24:46.548Z,0
2017-04-01T03:26:00.878Z,0
2017-04-01T03:26:45.980Z,0
2017-04-01T03:27:46.606Z,0
2017-04-01T03:28:46.630Z,0
2017-04-01T03:29:46.355Z,0
2017-04-01T03:30:46.671Z,0
2017-04-01T03:32:01.315Z,0
2017-04-01T03:32:47.320Z,0
2017-04-01T03:33:46.756Z,0
2017-04-01T03:35:01.373Z,0
2017-04-01T03:36:01.397Z,0
2017-04-01T03:36:46.807Z,0
2017-04-01T03:37:46.523Z,0
2017-04-01T03:38:46.848Z,0
2017-04-01T03:39:46.959Z,0
2017-04-01T03:40:46.889Z,0
2017-04-01T03:41:46.908Z,0
2017-04-01T03:42:46.926Z,0
2017-04-01T03:43:46.952Z,0
2017-04-01T03:44:46.974Z,0
2017-04-01T03:45:46.996Z,0
2017-04-01T03:47:01.330Z,0
2017-04-01T03:47:47.032Z,0
2017-04-01T03:49:01.672Z,0
2017-04-01T03:49:47.078Z,0
2017-04-01T03:50:47.102Z,0
2017-04-01T03:52:01.443Z,0
2017-04-01T03:52:47.142Z,0
2017-04-01T03:53:46.556Z,0
2017-04-01T03:54:47.189Z,0
2017-04-01T03:55:47.206Z,0
2017-04-01T03:56:46.926Z,0
2017-04-01T03:57:47.247Z,0
2017-04-01T03:58:47.270Z,0
2017-04-01T03:59:47.293Z,0
2017-04-01T04:00:47.008Z,0
2017-04-01T04:01:47.335Z,0
2017-04-01T04:02:47.353Z,0
2017-04-01T04:05:02.011Z,0
2017-04-01T04:05:47.421Z,0
2017-04-01T04:06:47.143Z,0
2017-04-01T04:08:02.080Z,0
2017-04-01T04:08:47.484Z,0
2017-04-01T04:10:47.527Z,0
2017-04-01T04:11:47.548Z,0
2017-04-01T04:12:47.567Z,0
2017-04-01T04:13:47.583Z,0
2017-04-01T04:14:47.306Z,0
2017-04-01T04:15:47.327Z,0
2017-04-01T04:16:47.653Z,0
2017-04-01T04:17:47.676Z,0
2017-04-01T04:18:47.397Z,0
2017-04-01T04:20:02.337Z,0
2017-04-01T04:20:47.738Z,0
2017-04-01T04:21:47.761Z,0
2017-04-01T04:23:02.396Z,0
2017-04-01T04:23:47.815Z,0
2017-04-01T04:24:47.850Z,0
2017-04-01T04:25:47.840Z,0
2017-04-01T04:27:01.874Z,0
2017-04-01T04:27:47.890Z,0
2017-04-01T04:28:47.906Z,0
2017-04-01T04:30:02.544Z,0
2017-04-01T04:30:47.647Z,0
2017-04-01T04:32:02.582Z,0
2017-04-01T04:32:47.993Z,0
2017-04-01T04:33:48.009Z,0
2017-04-01T04:35:02.646Z,0
2017-04-01T04:35:48.095Z,0
2017-04-01T04:37:48.095Z,5
2017-04-01T04:38:48.122Z,5
2017-04-01T04:39:48.135Z,5
2017-04-01T04:40:48.158Z,5
2017-04-01T04:41:48.186Z,5
2017-04-01T04:42:48.203Z,5
2017-04-01T04:43:48.225Z,10
2017-04-01T04:44:48.251Z,10
2017-04-01T04:45:47.961Z,10
2017-04-01T04:47:02.897Z,10
2017-04-01T04:47:48.303Z,15
2017-04-01T04:48:48.323Z,15
2017-04-01T04:49:48.349Z,15
2017-04-01T04:50:48.371Z,20
2017-04-01T04:52:02.699Z,20
2017-04-01T04:52:48.105Z,25
2017-04-01T04:54:02.740Z,25
2017-04-01T04:55:03.065Z,30
2017-04-01T04:55:48.214Z,30
2017-04-01T04:56:48.192Z,35
2017-04-01T04:57:48.215Z,35
2017-04-01T05:00:03.173Z,35
2017-04-01T05:00:48.577Z,40
2017-04-01T05:01:48.604Z,40
2017-04-01T05:03:02.932Z,45
2017-04-01T05:03:48.638Z,45
2017-04-01T05:05:02.976Z,50
2017-04-01T05:05:48.686Z,50
2017-04-01T05:07:03.015Z,55
2017-04-01T05:07:48.422Z,55
2017-04-01T05:09:03.054Z,60
2017-04-01T05:09:48.764Z,60
2017-04-01T05:11:03.403Z,65
2017-04-01T05:11:48.507Z,65
2017-04-01T05:13:48.851Z,85
2017-04-01T05:14:48.874Z,80
2017-04-01T05:15:48.900Z,80
2017-04-01T05:16:48.912Z,100
2017-04-01T05:17:48.631Z,125
2017-04-01T05:18:48.651Z,165
2017-04-01T05:19:48.978Z,195
2017-04-01T05:20:48.999Z,120
2017-04-01T05:21:48.762Z,85
2017-04-01T05:22:49.079Z,85
2017-04-01T05:25:03.701Z,120
2017-04-01T05:25:48.806Z,130
2017-04-01T05:27:03.749Z,140
2017-04-01T05:27:49.154Z,175
2017-04-01T05:28:49.179Z,155
2017-04-01T05:30:03.814Z,185
2017-04-01T05:30:49.222Z,240
2017-04-01T05:31:48.935Z,255
2017-04-01T05:33:03.572Z,345
2017-04-01T05:33:49.281Z,340
2017-04-01T05:34:49.304Z,225
2017-04-01T05:35:49.327Z,195
2017-04-01T05:36:48.753Z,195
2017-04-01T05:37:49.370Z,160
2017-04-01T05:38:49.089Z,240
2017-04-01T05:39:49.117Z,310
2017-04-01T05:40:49.439Z,325
2017-04-01T05:41:49.462Z,280
2017-04-01T05:43:03.800Z,305
2017-04-01T05:43:49.520Z,330
2017-04-01T05:44:49.542Z,345
2017-04-01T05:45:48.950Z,365
2017-04-01T05:46:49.283Z,345
2017-04-01T05:47:49.604Z,310
2017-04-01T05:48:49.331Z,330
2017-04-01T05:50:04.269Z,420
2017-04-01T05:50:49.377Z,430
2017-04-01T05:52:04.315Z,420
2017-04-01T05:52:49.724Z,440
2017-04-01T05:53:49.752Z,505
2017-04-01T05:54:49.804Z,505
2017-04-01T05:56:49.519Z,510
2017-04-01T05:58:49.571Z,430
2017-04-01T05:59:49.901Z,435
2017-04-01T06:00:49.620Z,445
2017-04-01T06:01:49.949Z,525
2017-04-01T06:02:49.978Z,615
2017-04-01T06:03:49.695Z,585
2017-04-01T06:05:04.642Z,570
2017-04-01T06:05:49.751Z,530
2017-04-01T06:06:50.081Z,475
2017-04-01T06:08:04.415Z,435
2017-04-01T06:08:50.131Z,480
2017-04-01T06:09:50.156Z,490
2017-04-01T06:11:50.211Z,480
2017-04-01T06:12:50.272Z,410
2017-04-01T06:13:50.266Z,435
2017-04-01T06:14:50.289Z,495
2017-04-01T06:15:50.321Z,425
2017-04-01T06:16:50.041Z,395
2017-04-01T06:18:50.399Z,465
2017-04-01T06:19:50.430Z,480
2017-04-01T06:20:50.454Z,480
2017-04-01T06:22:05.104Z,475
2017-04-01T06:22:50.517Z,475
2017-04-01T06:24:05.158Z,455
2017-04-01T06:24:50.575Z,425
2017-04-01T06:26:05.221Z,425
2017-04-01T06:26:50.638Z,390
2017-04-01T06:29:05.308Z,485
2017-04-01T06:30:05.036Z,530
2017-04-01T06:30:50.757Z,565
2017-04-01T06:31:50.784Z,650
2017-04-01T06:32:50.815Z,985
2017-04-01T06:34:50.570Z,720
2017-04-01T06:35:50.912Z,650
2017-04-01T06:36:50.935Z,560
2017-04-01T06:37:50.970Z,890
2017-04-01T06:38:50.691Z,1210
2017-04-01T06:39:50.725Z,1170
2017-04-01T06:41:05.375Z,1300
2017-04-01T06:42:05.405Z,1215
2017-04-01T06:42:51.119Z,1180
2017-04-01T06:44:05.769Z,1155
2017-04-01T06:44:51.183Z,685
2017-04-01T06:46:05.840Z,945
2017-04-01T06:46:51.249Z,880
2017-04-01T06:47:51.293Z,975
2017-04-01T06:48:51.311Z,935
2017-04-01T06:49:51.342Z,1000
2017-04-01T06:51:51.406Z,1075
2017-04-01T06:52:51.439Z,1080
2017-04-01T06:53:51.468Z,1110
2017-04-01T06:54:51.505Z,1175
2017-04-01T06:55:51.540Z,1220
2017-04-01T06:56:51.568Z,1245
2017-04-01T06:57:51.595Z,1150
2017-04-01T06:58:51.633Z,1070
2017-04-01T07:00:51.957Z,1035
2017-04-01T07:02:06.350Z,1035
2017-04-01T07:02:51.462Z,1085
2017-04-01T07:03:51.800Z,1085
2017-04-01T07:04:51.835Z,1275
2017-04-01T07:05:51.864Z,1235
2017-04-01T07:06:51.904Z,1220
2017-04-01T07:07:51.933Z,1260
2017-04-01T07:08:51.969Z,1185
2017-04-01T07:09:52.000Z,1105
2017-04-01T07:10:52.063Z,1185
2017-04-01T07:11:52.070Z,1230
2017-04-01T07:12:51.795Z,1200
2017-04-01T07:13:52.230Z,1185
2017-04-01T07:14:52.469Z,1175
2017-04-01T07:15:52.559Z,1150
2017-04-01T07:16:52.231Z,1040
2017-04-01T07:18:06.893Z,1085
2017-04-01T07:19:52.336Z,1175
2017-04-01T07:20:52.675Z,1250
2017-04-01T07:21:52.421Z,1300
2017-04-01T07:22:52.139Z,1260
2017-04-01T07:24:06.794Z,1185
2017-04-01T07:24:52.206Z,1150
2017-04-01T07:26:06.862Z,1180
2017-04-01T07:27:07.197Z,1175
2017-04-01T07:28:07.232Z,1155
2017-04-01T07:28:52.653Z,1130
2017-04-01T07:30:52.419Z,1125
2017-04-01T07:31:52.757Z,1185
2017-04-01T07:33:07.116Z,1255
2017-04-01T07:33:52.824Z,1270
2017-04-01T07:34:52.862Z,1270
2017-04-01T07:35:52.904Z,1260
2017-04-01T07:36:52.933Z,1185
2017-04-01T07:37:52.360Z,1185
2017-04-01T07:38:53.002Z,980
2017-04-01T07:39:53.039Z,1045
2017-04-01T07:40:52.773Z,1035
2017-04-01T07:41:52.808Z,1030
2017-04-01T07:42:53.142Z,1115
2017-04-01T07:44:52.914Z,1070
2017-04-01T07:46:07.568Z,1040
2017-04-01T07:47:07.904Z,1130
2017-04-01T07:48:53.055Z,1085
2017-04-01T07:50:07.747Z,1055
2017-04-01T07:50:53.427Z,1000
2017-04-01T07:51:53.465Z,995
2017-04-01T07:52:53.493Z,1025
2017-04-01T07:53:53.227Z,1065
2017-04-01T07:54:53.269Z,1050
2017-04-01T07:56:07.925Z,1070
2017-04-01T07:57:53.672Z,1070
2017-04-01T07:58:53.406Z,1045
2017-04-01T07:59:53.747Z,1060
2017-04-01T08:01:08.421Z,985
2017-04-01T08:02:08.139Z,935
2017-04-01T08:03:08.467Z,975
2017-04-01T08:03:53.884Z,980
2017-04-01T08:05:08.540Z,970
2017-04-01T08:05:53.954Z,960
2017-04-01T08:07:54.021Z,950
2017-04-01T08:08:54.066Z,960
2017-04-01T08:09:54.094Z,965
2017-04-01T08:10:54.128Z,950
2017-04-01T08:11:54.164Z,930
2017-04-01T08:12:54.200Z,925
2017-04-01T08:13:53.933Z,930
2017-04-01T08:15:08.887Z,920
2017-04-01T08:16:08.923Z,945
2017-04-01T08:16:54.335Z,960
2017-04-01T08:18:08.723Z,930
2017-04-01T08:19:09.026Z,895
2017-04-01T08:19:54.442Z,820
2017-04-01T08:21:09.099Z,855
2017-04-01T08:21:54.213Z,865
2017-04-01T08:22:53.673Z,880
2017-04-01T08:23:54.282Z,875
2017-04-01T08:24:54.616Z,850
2017-04-01T08:25:54.656Z,825
2017-04-01T08:26:54.689Z,810
2017-04-01T08:27:54.718Z,800
2017-04-01T08:29:09.373Z,790
2017-04-01T08:30:09.412Z,765
2017-04-01T08:30:54.827Z,760
2017-04-01T08:32:09.480Z,765
2017-04-01T08:32:54.892Z,760
2017-04-01T08:33:54.926Z,745
2017-04-01T08:35:09.581Z,735
2017-04-01T08:36:09.615Z,730
2017-04-01T08:37:09.351Z,730
2017-04-01T08:37:55.069Z,660
2017-04-01T08:40:09.459Z,570
2017-04-01T08:40:54.868Z,585
2017-04-01T08:41:54.900Z,605
2017-04-01T08:42:54.939Z,665
2017-04-01T08:43:55.276Z,655
2017-04-01T08:44:55.004Z,645
2017-04-01T08:45:55.340Z,630
2017-04-01T08:46:55.380Z,605
2017-04-01T08:47:55.409Z,590
2017-04-01T08:49:24.683Z,590
2017-04-01T08:49:55.479Z,600
2017-04-01T08:50:55.514Z,605
2017-04-01T08:53:55.623Z,575
2017-04-01T08:54:55.656Z,560
2017-04-01T08:55:55.685Z,545
2017-04-01T08:56:55.719Z,545
2017-04-01T08:57:55.755Z,540
2017-04-01T08:58:55.787Z,530
2017-04-01T08:59:55.826Z,525
2017-04-01T09:01:10.477Z,520
2017-04-01T09:01:55.592Z,515
2017-04-01T09:02:55.622Z,515
2017-04-01T09:03:55.662Z,510
2017-04-01T09:05:25.233Z,510
2017-04-01T09:05:56.040Z,500
2017-04-01T09:06:56.068Z,490
2017-04-01T09:08:10.416Z,495
2017-04-01T09:08:56.133Z,490
2017-04-01T09:11:56.239Z,495
2017-04-01T09:12:56.277Z,485
2017-04-01T09:13:56.006Z,480
2017-04-01T09:14:56.037Z,475
2017-04-01T09:16:10.994Z,475
2017-04-01T09:16:56.410Z,475
2017-04-01T09:17:56.441Z,480
2017-04-01T09:19:25.715Z,435
2017-04-01T09:20:11.136Z,395
2017-04-01T09:20:56.243Z,395
2017-04-01T09:21:56.586Z,390
2017-04-01T09:22:56.614Z,415
2017-04-01T09:23:56.649Z,395
2017-04-01T09:24:56.721Z,410
2017-04-01T09:25:56.715Z,420
2017-04-01T09:26:56.750Z,425
2017-04-01T09:27:56.787Z,440
2017-04-01T09:28:56.818Z,395
2017-04-01T09:29:56.855Z,360
2017-04-01T09:30:56.887Z,375
2017-04-01T09:32:10.930Z,350
2017-04-01T09:33:11.570Z,350
2017-04-01T09:33:56.989Z,355
2017-04-01T09:34:57.019Z,330
2017-04-01T09:36:11.675Z,320
2017-04-01T09:37:11.706Z,315
2017-04-01T09:37:56.517Z,315
2017-04-01T09:39:11.771Z,310
2017-04-01T09:40:11.503Z,310
2017-04-01T09:40:57.224Z,300
2017-04-01T09:42:11.577Z,305
2017-04-01T09:42:57.289Z,315
2017-04-01T09:44:57.356Z,305
2017-04-01T09:46:12.017Z,300
2017-04-01T09:47:12.046Z,300
2017-04-01T09:47:57.452Z,300
2017-04-01T09:48:57.498Z,295
2017-04-01T09:49:57.525Z,295
2017-04-01T09:50:57.559Z,295
2017-04-01T09:52:11.908Z,300
2017-04-01T09:53:12.245Z,300
2017-04-01T09:54:11.684Z,300
2017-04-01T09:55:12.309Z,295
2017-04-01T09:56:12.347Z,290
2017-04-01T09:56:57.761Z,295
2017-04-01T09:58:57.830Z,295
2017-04-01T09:59:57.864Z,295
2017-04-01T10:00:57.892Z,295
2017-04-01T10:02:12.548Z,295
2017-04-01T10:02:57.961Z,285
2017-04-01T10:03:57.996Z,285
2017-04-01T10:04:58.026Z,290
2017-04-01T10:06:12.683Z,280
2017-04-01T10:07:12.716Z,285
2017-04-01T10:08:12.451Z,275
2017-04-01T10:08:57.597Z,270
2017-04-01T10:09:57.894Z,270
2017-04-01T10:10:58.229Z,265
2017-04-01T10:12:12.279Z,280
2017-04-01T10:12:58.297Z,275
2017-04-01T10:14:58.061Z,265
2017-04-01T10:15:58.400Z,265
2017-04-01T10:17:12.743Z,275
2017-04-01T10:17:58.459Z,275
2017-04-01T10:18:58.186Z,275
2017-04-01T10:19:58.526Z,275
2017-04-01T10:20:58.562Z,275
2017-04-01T10:22:12.911Z,275
2017-04-01T10:22:58.629Z,275
2017-04-01T10:24:58.695Z,275
2017-04-01T10:25:58.725Z,280
2017-04-01T10:27:13.373Z,280
2017-04-01T10:28:13.409Z,275
2017-04-01T10:28:58.821Z,270
2017-04-01T10:29:58.856Z,270
2017-04-01T10:30:58.886Z,270
2017-04-01T10:31:58.926Z,270
2017-04-01T10:32:58.963Z,265
2017-04-01T10:33:58.984Z,260
2017-04-01T10:34:59.018Z,255
2017-04-01T10:35:59.050Z,255
2017-04-01T10:36:59.084Z,245
2017-04-01T10:37:59.113Z,240
2017-04-01T10:39:28.131Z,235
2017-04-01T10:39:59.180Z,230
2017-04-01T10:40:59.213Z,225
2017-04-01T10:41:59.244Z,220
2017-04-01T10:43:13.595Z,230
2017-04-01T10:43:59.309Z,230
2017-04-01T10:44:59.338Z,225
2017-04-01T10:45:59.378Z,230
2017-04-01T10:47:14.026Z,225
2017-04-01T10:48:14.094Z,225
2017-04-01T10:48:59.160Z,220
2017-04-01T10:50:13.514Z,220
2017-04-01T10:51:14.151Z,215
2017-04-01T10:51:59.567Z,215
2017-04-01T10:53:14.212Z,215
2017-04-01T10:54:28.859Z,210
2017-04-01T10:54:59.658Z,210
2017-04-01T10:55:59.690Z,200
2017-04-01T10:56:59.715Z,200
2017-04-01T10:58:59.778Z,195
2017-04-01T10:59:59.815Z,190
2017-04-01T11:00:59.836Z,190
2017-04-01T11:01:59.872Z,185
2017-04-01T11:02:59.604Z,180
2017-04-01T11:03:59.628Z,180
2017-04-01T11:05:14.278Z,180
2017-04-01T11:06:14.613Z,180
2017-04-01T11:07:14.642Z,180
2017-04-01T11:08:00.055Z,175
2017-04-01T11:09:00.088Z,170
2017-04-01T11:10:00.119Z,170
2017-04-01T11:11:14.766Z,165
2017-04-01T11:12:00.179Z,165
2017-04-01T11:13:00.215Z,165
2017-04-01T11:14:00.241Z,165
2017-04-01T11:15:14.883Z,165
2017-04-01T11:16:00.297Z,165
2017-04-01T11:16:59.725Z,160
2017-04-01T11:18:00.360Z,160
2017-04-01T11:20:00.118Z,160
2017-04-01T11:21:00.145Z,155
2017-04-01T11:22:00.521Z,155
2017-04-01T11:23:00.509Z,155
2017-04-01T11:24:00.543Z,155
2017-04-01T11:25:00.567Z,155
2017-04-01T11:26:15.221Z,150
2017-04-01T11:27:00.631Z,150
2017-04-01T11:28:00.667Z,150
2017-04-01T11:29:00.701Z,150
2017-04-01T11:31:15.367Z,150
2017-04-01T11:32:00.783Z,150
2017-04-01T11:34:00.542Z,150
2017-04-01T11:35:00.870Z,150
2017-04-01T11:36:00.904Z,150
2017-04-01T11:37:00.930Z,150
2017-04-01T11:38:00.660Z,150
2017-04-01T11:39:01.391Z,160
2017-04-01T11:40:00.714Z,160
2017-04-01T11:41:15.666Z,155
2017-04-01T11:42:15.697Z,155
2017-04-01T11:43:15.731Z,155
2017-04-01T11:44:15.751Z,155
2017-04-01T11:45:01.164Z,155
2017-04-01T11:46:00.896Z,155
2017-04-01T11:49:01.286Z,155
2017-04-01T11:50:01.012Z,155
2017-04-01T11:51:15.964Z,155
2017-04-01T11:52:01.378Z,155
2017-04-01T11:53:01.098Z,155
2017-04-01T11:54:01.435Z,150
2017-04-01T11:55:01.462Z,145
2017-04-01T11:56:01.491Z,145
2017-04-01T11:57:01.521Z,145
2017-04-01T11:58:01.553Z,150
2017-04-01T11:59:16.199Z,150
2017-04-01T12:00:16.227Z,150
2017-04-01T12:01:01.636Z,150
2017-04-01T12:02:16.283Z,155
2017-04-01T12:03:16.316Z,145
2017-04-01T12:04:01.730Z,150
2017-04-01T12:05:01.770Z,155
2017-04-01T12:06:01.787Z,155
2017-04-01T12:07:01.818Z,155
2017-04-01T12:08:01.846Z,155
2017-04-01T12:09:01.877Z,155
2017-04-01T12:10:01.598Z,155
2017-04-01T12:11:16.556Z,155
2017-04-01T12:12:16.615Z,155
2017-04-01T12:13:16.606Z,155
2017-04-01T12:14:02.017Z,155
2017-04-01T12:15:02.046Z,155
2017-04-01T12:16:02.088Z,155
2017-04-01T12:17:02.119Z,155
2017-04-01T12:18:31.379Z,155
2017-04-01T12:19:02.169Z,155
2017-04-01T12:20:01.889Z,155
2017-04-01T12:21:02.229Z,155
2017-04-01T12:22:02.261Z,155
2017-04-01T12:23:02.287Z,150
2017-04-01T12:24:02.314Z,150
2017-04-01T12:25:02.344Z,150
2017-04-01T12:26:02.375Z,155
2017-04-01T12:27:02.096Z,155
2017-04-01T12:28:02.436Z,155
2017-04-01T12:29:17.076Z,155
2017-04-01T12:30:02.488Z,155
2017-04-01T12:31:17.136Z,155
2017-04-01T12:32:02.550Z,155
2017-04-01T12:33:02.578Z,155
2017-04-01T12:34:02.606Z,155
2017-04-01T12:35:02.631Z,155
2017-04-01T12:36:02.669Z,150
2017-04-01T12:37:02.692Z,150
2017-04-01T12:38:02.718Z,150
2017-04-01T12:39:17.373Z,150
2017-04-01T12:40:03.375Z,145
2017-04-01T12:41:17.426Z,150
2017-04-01T12:42:02.868Z,150
2017-04-01T12:43:02.561Z,155
2017-04-01T12:44:02.892Z,155
2017-04-01T12:45:02.922Z,160
2017-04-01T12:46:17.569Z,160
2017-04-01T12:47:02.978Z,160
2017-04-01T12:48:02.705Z,160
2017-04-01T12:49:03.039Z,160
2017-04-01T12:50:17.684Z,160
2017-04-01T12:51:03.101Z,160
2017-04-01T12:52:03.126Z,160
2017-04-01T12:53:03.151Z,160
2017-04-01T12:54:03.182Z,160
2017-04-01T12:55:03.210Z,160
2017-04-01T12:56:17.858Z,160
2017-04-01T12:57:03.271Z,160
2017-04-01T12:58:17.912Z,160
2017-04-01T13:00:03.356Z,155
2017-04-01T13:01:18.001Z,155
2017-04-01T13:02:18.032Z,155
2017-04-01T13:03:03.453Z,155
2017-04-01T13:04:18.088Z,145
2017-04-01T13:05:02.896Z,150
2017-04-01T13:06:17.846Z,155
2017-04-01T13:07:03.258Z,155
2017-04-01T13:08:03.586Z,160
2017-04-01T13:09:03.616Z,155
2017-04-01T13:10:03.645Z,155
2017-04-01T13:11:03.676Z,160
2017-04-01T13:12:03.701Z,160
2017-04-01T13:13:03.731Z,160
2017-04-01T13:14:18.375Z,160
2017-04-01T13:15:03.894Z,160
2017-04-01T13:16:03.818Z,135
2017-04-01T13:17:18.361Z,160
2017-04-01T13:18:03.572Z,150
2017-04-01T13:19:03.907Z,150
2017-04-01T13:20:18.549Z,155
2017-04-01T13:21:03.966Z,150
2017-04-01T13:22:18.608Z,155
2017-04-01T13:24:04.049Z,140
2017-04-01T13:25:03.776Z,150
2017-04-01T13:26:04.104Z,155
2017-04-01T13:27:04.136Z,155
2017-04-01T13:28:03.861Z,155
2017-04-01T13:29:04.188Z,155
2017-04-01T13:30:04.220Z,160
2017-04-01T13:31:04.250Z,165
2017-04-01T13:32:18.902Z,155
2017-04-01T13:33:18.926Z,155
2017-04-01T13:34:18.950Z,155
2017-04-01T13:35:04.367Z,155
2017-04-01T13:36:19.011Z,155
2017-04-01T13:37:04.131Z,155
2017-04-01T13:38:19.071Z,155
2017-04-01T13:39:04.177Z,155
2017-04-01T13:40:04.208Z,160
2017-04-01T13:41:04.234Z,155
2017-04-01T13:42:03.958Z,155
2017-04-01T13:43:04.293Z,155
2017-04-01T13:44:04.019Z,150
2017-04-01T13:45:04.350Z,150
2017-04-01T13:46:19.299Z,150
2017-04-01T13:47:04.407Z,150
2017-04-01T13:48:04.736Z,150
2017-04-01T13:49:04.463Z,150
2017-04-01T13:50:04.799Z,150
2017-04-01T13:51:04.825Z,145
2017-04-01T13:52:04.859Z,145
2017-04-01T13:53:19.501Z,135
2017-04-01T13:54:04.606Z,135
2017-04-01T13:55:04.639Z,135
2017-04-01T13:56:04.968Z,140
2017-04-01T13:57:05.001Z,145
2017-04-01T13:58:19.648Z,140
2017-04-01T13:59:05.058Z,140
2017-04-01T14:00:04.780Z,140
2017-04-01T14:01:05.109Z,140
2017-04-01T14:02:05.143Z,145
2017-04-01T14:03:05.168Z,145
2017-04-01T14:04:05.205Z,150
2017-04-01T14:05:05.228Z,150
2017-04-01T14:06:19.870Z,145
2017-04-01T14:07:19.900Z,145
2017-04-01T14:08:05.309Z,145
2017-04-01T14:09:05.337Z,145
2017-04-01T14:10:19.981Z,145
2017-04-01T14:11:05.396Z,140
2017-04-01T14:12:05.128Z,140
2017-04-01T14:14:05.480Z,130
2017-04-01T14:15:05.508Z,130
2017-04-01T14:16:20.155Z,120
2017-04-01T14:17:20.189Z,125
2017-04-01T14:18:05.594Z,135
2017-04-01T14:19:05.621Z,135
2017-04-01T14:20:20.302Z,125
2017-04-01T14:21:05.379Z,130
2017-04-01T14:22:20.327Z,125
2017-04-01T14:23:05.438Z,130
2017-04-01T14:24:20.379Z,125
2017-04-01T14:25:20.417Z,135
2017-04-01T14:26:20.446Z,135
2017-04-01T14:27:05.548Z,130
2017-04-01T14:28:05.879Z,125
2017-04-01T14:29:05.602Z,120
2017-04-01T14:30:05.024Z,135
2017-04-01T14:31:05.967Z,135
2017-04-01T14:32:05.993Z,135
2017-04-01T14:33:20.734Z,125
2017-04-01T14:34:06.047Z,130
2017-04-01T14:35:06.178Z,135
2017-04-01T14:38:20.474Z,140
2017-04-01T14:40:06.227Z,135
2017-04-01T14:41:20.562Z,135
2017-04-01T14:42:05.973Z,135
2017-04-01T14:43:06.303Z,135
2017-04-01T14:44:06.331Z,135
2017-04-01T14:45:06.056Z,135
2017-04-01T14:46:06.082Z,135
2017-04-01T14:47:05.810Z,135
2017-04-01T14:48:20.755Z,135
2017-04-01T14:49:20.789Z,135
2017-04-01T14:50:21.115Z,135
2017-04-01T14:51:06.536Z,135
2017-04-01T14:52:06.564Z,130
2017-04-01T14:53:20.898Z,125
2017-04-01T14:54:06.615Z,125